logo
Search for airport 
image banner adimage banner adimage banner ad
image banner ad

FMNA - Antsiranana/Arrachart

Located in , Madagascar

ICAO - FMNA, IATA - DIE

Data provided by Airmate  

General information

Coordinates: S12°21'4" E49°17'39"
Elevation is 374 feet MSL.
 
Rated:
View ratings:
[VIEW]
View others Airports in Antsiranana

Operational data

Special qualification required
Current time UTC:
Current local time:
Weather
METAR: FMNA 251500Z 14006KT 9999 FEW020 BKN040 25/16 Q1014
View NOTAMs / SUP AIP / TFR affecting this airport [VIEW]
Communications frequencies: [VIEW]

Runways:

RWY identifierQFULength (ft)Width (ft)SurfaceLDA (ft)
13124°492198ASP
31304°492198ASP

Airport contact information

Address: Madagascar

Satellite view of FMNA